sensor_id;sensor_type;location;lat;lon;timestamp;pressure;altitude;pressure_sealevel;temperature;humidity
40117;BME280;25829;50.228;18.936;2023-04-08T00:00:59;98677.31;;;2.69;77.33
40117;BME280;25829;50.228;18.936;2023-04-08T00:04:03;98680.59;;;2.71;77.25
40117;BME280;25829;50.228;18.936;2023-04-08T00:07:04;98683.88;;;2.73;77.08
40117;BME280;25829;50.228;18.936;2023-04-08T00:10:05;98685.50;;;2.74;77.23
40117;BME280;25829;50.228;18.936;2023-04-08T00:13:07;98694.28;;;2.73;76.77
40117;BME280;25829;50.228;18.936;2023-04-08T00:16:07;98701.72;;;2.68;76.53
40117;BME280;25829;50.228;18.936;2023-04-08T00:19:08;98698.25;;;2.60;76.49
40117;BME280;25829;50.228;18.936;2023-04-08T00:22:09;98698.53;;;2.57;77.24
40117;BME280;25829;50.228;18.936;2023-04-08T00:25:11;98702.94;;;2.56;76.54
40117;BME280;25829;50.228;18.936;2023-04-08T00:28:13;98707.19;;;2.57;76.69
40117;BME280;25829;50.228;18.936;2023-04-08T00:31:14;98706.59;;;2.63;76.70
40117;BME280;25829;50.228;18.936;2023-04-08T00:34:15;98713.41;;;2.64;76.45
40117;BME280;25829;50.228;18.936;2023-04-08T00:37:16;98710.97;;;2.63;76.43
40117;BME280;25829;50.228;18.936;2023-04-08T00:40:18;98716.31;;;2.61;76.23
40117;BME280;25829;50.228;18.936;2023-04-08T00:43:19;98719.09;;;2.60;76.14
40117;BME280;25829;50.228;18.936;2023-04-08T00:46:20;98723.63;;;2.58;76.11
40117;BME280;25829;50.228;18.936;2023-04-08T00:49:25;98721.53;;;2.61;76.41
40117;BME280;25829;50.228;18.936;2023-04-08T00:52:26;98719.44;;;2.65;76.19
40117;BME280;25829;50.228;18.936;2023-04-08T00:55:27;98716.72;;;2.66;76.18
40117;BME280;25829;50.228;18.936;2023-04-08T00:58:28;98718.34;;;2.67;75.88
40117;BME280;25829;50.228;18.936;2023-04-08T01:05:06;98718.69;;;2.72;75.57
40117;BME280;25829;50.228;18.936;2023-04-08T01:08:09;98726.50;;;2.72;75.82
40117;BME280;25829;50.228;18.936;2023-04-08T01:11:12;98730.75;;;2.73;75.62
40117;BME280;25829;50.228;18.936;2023-04-08T01:14:17;98732.69;;;2.71;75.68
40117;BME280;25829;50.228;18.936;2023-04-08T01:17:22;98728.59;;;2.69;75.66
40117;BME280;25829;50.228;18.936;2023-04-08T01:20:27;98735.97;;;2.73;75.46
40117;BME280;25829;50.228;18.936;2023-04-08T01:23:58;98733.06;;;2.77;75.40
40117;BME280;25829;50.228;18.936;2023-04-08T01:27:06;98736.31;;;2.79;75.56
40117;BME280;25829;50.228;18.936;2023-04-08T01:30:08;98726.88;;;2.78;75.37
40117;BME280;25829;50.228;18.936;2023-04-08T01:33:11;98729.47;;;2.78;75.63
40117;BME280;25829;50.228;18.936;2023-04-08T01:36:13;98729.78;;;2.74;75.15
40117;BME280;25829;50.228;18.936;2023-04-08T01:39:15;98735.97;;;2.73;75.20
40117;BME280;25829;50.228;18.936;2023-04-08T01:42:19;98732.34;;;2.66;74.57
40117;BME280;25829;50.228;18.936;2023-04-08T01:45:22;98740.75;;;2.60;74.94
40117;BME280;25829;50.228;18.936;2023-04-08T01:48:24;98744.38;;;2.49;74.54
40117;BME280;25829;50.228;18.936;2023-04-08T01:51:25;98743.88;;;2.46;75.24
40117;BME280;25829;50.228;18.936;2023-04-08T01:54:27;98748.84;;;2.39;75.08
40117;BME280;25829;50.228;18.936;2023-04-08T01:57:31;98746.66;;;2.35;74.84
40117;BME280;25829;50.228;18.936;2023-04-08T02:00:33;98747.13;;;2.30;74.91
40117;BME280;25829;50.228;18.936;2023-04-08T02:03:35;98749.50;;;2.23;74.82
40117;BME280;25829;50.228;18.936;2023-04-08T02:06:37;98752.03;;;2.15;74.74
40117;BME280;25829;50.228;18.936;2023-04-08T02:09:38;98745.31;;;2.13;75.19
40117;BME280;25829;50.228;18.936;2023-04-08T02:12:38;98746.94;;;2.14;75.19
40117;BME280;25829;50.228;18.936;2023-04-08T02:15:52;98756.41;;;2.15;75.00
40117;BME280;25829;50.228;18.936;2023-04-08T02:19:14;98756.25;;;2.16;75.10
40117;BME280;25829;50.228;18.936;2023-04-08T02:22:30;98754.09;;;2.12;74.77
40117;BME280;25829;50.228;18.936;2023-04-08T02:25:34;98751.78;;;2.09;74.92
40117;BME280;25829;50.228;18.936;2023-04-08T02:28:38;98762.63;;;2.04;74.66
40117;BME280;25829;50.228;18.936;2023-04-08T02:31:40;98756.91;;;2.00;74.81
40117;BME280;25829;50.228;18.936;2023-04-08T02:34:42;98760.03;;;2.04;74.97
40117;BME280;25829;50.228;18.936;2023-04-08T02:37:48;98765.78;;;2.08;74.88
40117;BME280;25829;50.228;18.936;2023-04-08T02:40:49;98761.50;;;2.07;74.81
40117;BME280;25829;50.228;18.936;2023-04-08T02:43:50;98765.09;;;2.06;74.70
40117;BME280;25829;50.228;18.936;2023-04-08T02:46:54;98772.38;;;2.02;74.48
40117;BME280;25829;50.228;18.936;2023-04-08T02:49:55;98768.53;;;1.96;74.30
40117;BME280;25829;50.228;18.936;2023-04-08T02:52:56;98769.00;;;1.92;74.32
40117;BME280;25829;50.228;18.936;2023-04-08T02:55:57;98779.94;;;1.95;74.77
40117;BME280;25829;50.228;18.936;2023-04-08T02:58:57;98779.63;;;1.98;74.78
40117;BME280;25829;50.228;18.936;2023-04-08T03:02:01;98779.13;;;1.95;74.20
40117;BME280;25829;50.228;18.936;2023-04-08T03:05:02;98793.38;;;1.91;74.70
40117;BME280;25829;50.228;18.936;2023-04-08T03:08:04;98795.16;;;1.90;74.37
40117;BME280;25829;50.228;18.936;2023-04-08T03:11:06;98795.84;;;1.83;74.57
40117;BME280;25829;50.228;18.936;2023-04-08T03:14:06;98798.47;;;1.83;74.78
40117;BME280;25829;50.228;18.936;2023-04-08T03:17:07;98797.94;;;1.79;74.72
40117;BME280;25829;50.228;18.936;2023-04-08T03:20:08;98790.28;;;1.77;75.01
40117;BME280;25829;50.228;18.936;2023-04-08T03:23:09;98802.88;;;1.72;74.78
40117;BME280;25829;50.228;18.936;2023-04-08T03:26:10;98801.94;;;1.73;74.79
40117;BME280;25829;50.228;18.936;2023-04-08T03:29:11;98800.06;;;1.66;74.75
40117;BME280;25829;50.228;18.936;2023-04-08T03:32:13;98809.66;;;1.55;74.95
40117;BME280;25829;50.228;18.936;2023-04-08T03:35:13;98801.19;;;1.53;74.71
40117;BME280;25829;50.228;18.936;2023-04-08T03:38:14;98805.69;;;1.51;74.55
40117;BME280;25829;50.228;18.936;2023-04-08T03:41:15;98808.16;;;1.53;74.87
40117;BME280;25829;50.228;18.936;2023-04-08T03:44:15;98818.56;;;1.53;74.19
40117;BME280;25829;50.228;18.936;2023-04-08T03:47:16;98816.41;;;1.48;74.51
40117;BME280;25829;50.228;18.936;2023-04-08T03:50:17;98815.28;;;1.41;74.21
40117;BME280;25829;50.228;18.936;2023-04-08T03:53:18;98814.09;;;1.36;73.98
40117;BME280;25829;50.228;18.936;2023-04-08T03:56:19;98810.50;;;1.37;74.29
40117;BME280;25829;50.228;18.936;2023-04-08T03:59:20;98820.78;;;1.38;74.61
40117;BME280;25829;50.228;18.936;2023-04-08T04:02:20;98821.44;;;1.40;74.02
40117;BME280;25829;50.228;18.936;2023-04-08T04:05:21;98828.53;;;1.48;74.25
40117;BME280;25829;50.228;18.936;2023-04-08T04:08:22;98835.94;;;1.52;74.09
40117;BME280;25829;50.228;18.936;2023-04-08T04:11:23;98843.59;;;1.44;73.73
40117;BME280;25829;50.228;18.936;2023-04-08T04:14:23;98836.38;;;1.38;74.23
40117;BME280;25829;50.228;18.936;2023-04-08T04:17:24;98841.72;;;1.37;74.56
40117;BME280;25829;50.228;18.936;2023-04-08T04:20:25;98838.16;;;1.38;73.99
40117;BME280;25829;50.228;18.936;2023-04-08T04:23:28;98843.06;;;1.41;74.58
40117;BME280;25829;50.228;18.936;2023-04-08T04:26:29;98856.59;;;1.44;74.04
40117;BME280;25829;50.228;18.936;2023-04-08T04:29:30;98851.41;;;1.44;74.34
40117;BME280;25829;50.228;18.936;2023-04-08T04:32:31;98852.91;;;1.47;74.50
40117;BME280;25829;50.228;18.936;2023-04-08T04:35:32;98847.44;;;1.50;73.91
40117;BME280;25829;50.228;18.936;2023-04-08T04:38:33;98854.69;;;1.56;74.30
40117;BME280;25829;50.228;18.936;2023-04-08T04:41:34;98858.75;;;1.59;74.47
40117;BME280;25829;50.228;18.936;2023-04-08T04:44:38;98859.34;;;1.62;74.34
40117;BME280;25829;50.228;18.936;2023-04-08T04:47:39;98861.78;;;1.64;74.32
40117;BME280;25829;50.228;18.936;2023-04-08T04:50:39;98866.81;;;1.65;73.81
40117;BME280;25829;50.228;18.936;2023-04-08T04:53:40;98873.00;;;1.64;74.05
40117;BME280;25829;50.228;18.936;2023-04-08T04:56:41;98875.59;;;1.64;73.83
40117;BME280;25829;50.228;18.936;2023-04-08T04:59:42;98874.94;;;1.62;73.99
40117;BME280;25829;50.228;18.936;2023-04-08T05:02:43;98875.47;;;1.66;73.81
40117;BME280;25829;50.228;18.936;2023-04-08T05:05:51;98878.03;;;1.75;73.84
40117;BME280;25829;50.228;18.936;2023-04-08T05:08:55;98883.66;;;1.81;73.56
40117;BME280;25829;50.228;18.936;2023-04-08T05:11:55;98881.16;;;1.79;73.66
40117;BME280;25829;50.228;18.936;2023-04-08T05:14:59;98882.97;;;1.78;73.76
40117;BME280;25829;50.228;18.936;2023-04-08T05:18:00;98884.31;;;1.83;73.39
40117;BME280;25829;50.228;18.936;2023-04-08T05:21:02;98891.44;;;1.81;73.21
40117;BME280;25829;50.228;18.936;2023-04-08T05:24:03;98894.59;;;1.74;73.26
40117;BME280;25829;50.228;18.936;2023-04-08T05:27:05;98893.38;;;1.78;73.51
40117;BME280;25829;50.228;18.936;2023-04-08T05:30:07;98893.25;;;1.80;73.83
40117;BME280;25829;50.228;18.936;2023-04-08T05:33:09;98902.78;;;1.89;73.28
40117;BME280;25829;50.228;18.936;2023-04-08T05:36:13;98904.81;;;1.95;73.22
40117;BME280;25829;50.228;18.936;2023-04-08T05:39:13;98907.53;;;2.03;73.61
40117;BME280;25829;50.228;18.936;2023-04-08T05:42:14;98906.25;;;2.17;73.70
40117;BME280;25829;50.228;18.936;2023-04-08T05:45:15;98910.31;;;2.30;73.25
40117;BME280;25829;50.228;18.936;2023-04-08T05:48:19;98910.13;;;2.41;72.97
40117;BME280;25829;50.228;18.936;2023-04-08T05:51:20;98914.47;;;2.50;72.88
40117;BME280;25829;50.228;18.936;2023-04-08T05:54:21;98918.22;;;2.65;72.77
40117;BME280;25829;50.228;18.936;2023-04-08T05:57:22;98919.09;;;2.84;72.06
40117;BME280;25829;50.228;18.936;2023-04-08T06:00:23;98917.22;;;2.76;71.32
40117;BME280;25829;50.228;18.936;2023-04-08T06:03:23;98923.03;;;2.70;71.36
40117;BME280;25829;50.228;18.936;2023-04-08T06:06:24;98927.31;;;2.61;71.35
40117;BME280;25829;50.228;18.936;2023-04-08T06:09:25;98936.09;;;2.60;71.78
40117;BME280;25829;50.228;18.936;2023-04-08T06:12:26;98935.41;;;2.58;71.36
40117;BME280;25829;50.228;18.936;2023-04-08T06:15:27;98936.22;;;2.59;71.81
40117;BME280;25829;50.228;18.936;2023-04-08T06:18:30;98945.94;;;2.66;71.51
40117;BME280;25829;50.228;18.936;2023-04-08T06:21:34;98941.03;;;2.63;71.06
40117;BME280;25829;50.228;18.936;2023-04-08T06:24:34;98951.53;;;2.71;71.30
40117;BME280;25829;50.228;18.936;2023-04-08T06:27:35;98946.28;;;2.81;71.31
40117;BME280;25829;50.228;18.936;2023-04-08T06:30:36;98951.03;;;2.86;70.99
40117;BME280;25829;50.228;18.936;2023-04-08T06:33:39;98946.00;;;3.02;71.47
40117;BME280;25829;50.228;18.936;2023-04-08T06:36:40;98952.03;;;3.20;70.93
40117;BME280;25829;50.228;18.936;2023-04-08T06:39:41;98959.63;;;3.32;70.27
40117;BME280;25829;50.228;18.936;2023-04-08T06:42:48;98958.31;;;3.45;70.04
40117;BME280;25829;50.228;18.936;2023-04-08T06:46:02;98963.47;;;3.55;69.77
40117;BME280;25829;50.228;18.936;2023-04-08T06:49:10;98959.50;;;3.69;68.49
40117;BME280;25829;50.228;18.936;2023-04-08T06:52:10;98964.94;;;3.76;68.54
40117;BME280;25829;50.228;18.936;2023-04-08T06:55:14;98976.06;;;3.78;67.99
40117;BME280;25829;50.228;18.936;2023-04-08T06:58:21;98978.00;;;3.76;68.18
40117;BME280;25829;50.228;18.936;2023-04-08T07:01:22;98982.41;;;3.75;67.76
40117;BME280;25829;50.228;18.936;2023-04-08T07:04:26;98975.97;;;3.69;67.07
40117;BME280;25829;50.228;18.936;2023-04-08T07:07:27;98970.13;;;3.67;67.48
40117;BME280;25829;50.228;18.936;2023-04-08T07:10:27;98977.47;;;3.72;67.90
40117;BME280;25829;50.228;18.936;2023-04-08T07:13:28;98980.75;;;3.92;67.89
40117;BME280;25829;50.228;18.936;2023-04-08T07:16:30;98979.59;;;4.12;66.46
40117;BME280;25829;50.228;18.936;2023-04-08T07:22:43;98985.09;;;4.35;65.77
40117;BME280;25829;50.228;18.936;2023-04-08T07:25:48;98987.56;;;4.37;65.21
40117;BME280;25829;50.228;18.936;2023-04-08T07:28:48;98987.41;;;4.38;64.65
40117;BME280;25829;50.228;18.936;2023-04-08T07:31:59;98988.91;;;4.49;64.88
40117;BME280;25829;50.228;18.936;2023-04-08T07:35:02;99000.75;;;4.61;64.71
40117;BME280;25829;50.228;18.936;2023-04-08T07:38:03;99007.66;;;4.71;63.38
40117;BME280;25829;50.228;18.936;2023-04-08T07:41:09;98998.59;;;4.91;64.32
40117;BME280;25829;50.228;18.936;2023-04-08T07:44:10;99008.78;;;5.10;64.65
40117;BME280;25829;50.228;18.936;2023-04-08T07:47:11;99006.38;;;5.25;63.93
40117;BME280;25829;50.228;18.936;2023-04-08T07:50:18;99013.09;;;5.20;60.44
40117;BME280;25829;50.228;18.936;2023-04-08T07:53:19;99010.97;;;5.23;62.05
40117;BME280;25829;50.228;18.936;2023-04-08T07:56:39;99002.03;;;5.58;61.01
40117;BME280;25829;50.228;18.936;2023-04-08T07:59:46;99004.53;;;6.09;59.56
40117;BME280;25829;50.228;18.936;2023-04-08T08:02:47;99001.00;;;6.49;59.15
40117;BME280;25829;50.228;18.936;2023-04-08T08:05:48;99006.84;;;6.76;58.09
40117;BME280;25829;50.228;18.936;2023-04-08T08:08:49;99002.00;;;6.96;57.88
40117;BME280;25829;50.228;18.936;2023-04-08T08:11:49;99007.16;;;7.12;57.07
40117;BME280;25829;50.228;18.936;2023-04-08T08:14:51;99006.81;;;7.46;58.55
40117;BME280;25829;50.228;18.936;2023-04-08T08:17:54;99005.44;;;8.19;58.46
40117;BME280;25829;50.228;18.936;2023-04-08T08:20:55;99000.56;;;8.90;55.21
40117;BME280;25829;50.228;18.936;2023-04-08T08:23:59;98994.81;;;9.53;55.05
40117;BME280;25829;50.228;18.936;2023-04-08T08:27:00;99000.00;;;9.89;53.33
40117;BME280;25829;50.228;18.936;2023-04-08T08:30:08;99007.66;;;10.33;52.92
40117;BME280;25829;50.228;18.936;2023-04-08T08:33:12;99000.38;;;10.70;51.62
40117;BME280;25829;50.228;18.936;2023-04-08T08:36:13;99002.34;;;10.96;52.44
40117;BME280;25829;50.228;18.936;2023-04-08T08:39:14;98998.03;;;11.37;53.78
40117;BME280;25829;50.228;18.936;2023-04-08T08:42:26;99005.97;;;11.43;46.84
40117;BME280;25829;50.228;18.936;2023-04-08T08:45:27;99006.34;;;10.79;50.79
40117;BME280;25829;50.228;18.936;2023-04-08T08:48:41;99018.91;;;10.42;50.83
40117;BME280;25829;50.228;18.936;2023-04-08T08:51:45;99007.66;;;10.05;52.03
40117;BME280;25829;50.228;18.936;2023-04-08T08:54:47;99020.53;;;9.94;52.91
40117;BME280;25829;50.228;18.936;2023-04-08T08:57:50;99022.53;;;9.92;53.28
40117;BME280;25829;50.228;18.936;2023-04-08T09:00:51;99021.84;;;10.04;52.23
40117;BME280;25829;50.228;18.936;2023-04-08T09:04:06;99027.91;;;10.26;52.74
40117;BME280;25829;50.228;18.936;2023-04-08T09:07:09;99030.63;;;10.11;52.84
40117;BME280;25829;50.228;18.936;2023-04-08T09:10:10;99041.94;;;10.05;53.45
40117;BME280;25829;50.228;18.936;2023-04-08T09:13:10;99045.56;;;9.83;51.83
40117;BME280;25829;50.228;18.936;2023-04-08T09:16:16;99038.41;;;9.55;52.47
40117;BME280;25829;50.228;18.936;2023-04-08T09:19:17;99036.97;;;9.53;53.29
40117;BME280;25829;50.228;18.936;2023-04-08T09:22:24;99036.78;;;9.54;52.75
40117;BME280;25829;50.228;18.936;2023-04-08T09:25:28;99048.16;;;9.40;52.56
40117;BME280;25829;50.228;18.936;2023-04-08T09:28:29;99039.19;;;9.34;52.66
40117;BME280;25829;50.228;18.936;2023-04-08T09:31:37;99036.06;;;9.31;53.17
40117;BME280;25829;50.228;18.936;2023-04-08T09:34:40;99047.44;;;9.16;52.61
40117;BME280;25829;50.228;18.936;2023-04-08T09:37:42;99049.75;;;9.05;53.78
40117;BME280;25829;50.228;18.936;2023-04-08T09:40:51;99044.59;;;8.97;51.74
40117;BME280;25829;50.228;18.936;2023-04-08T09:44:05;99042.94;;;8.66;53.45
40117;BME280;25829;50.228;18.936;2023-04-08T09:47:18;99044.94;;;8.64;53.94
40117;BME280;25829;50.228;18.936;2023-04-08T09:50:25;99040.41;;;8.87;53.93
40117;BME280;25829;50.228;18.936;2023-04-08T09:53:33;99049.88;;;9.48;53.68
40117;BME280;25829;50.228;18.936;2023-04-08T09:56:42;99044.31;;;10.22;50.14
40117;BME280;25829;50.228;18.936;2023-04-08T09:59:51;99051.75;;;11.02;52.23
40117;BME280;25829;50.228;18.936;2023-04-08T10:03:01;99051.56;;;11.72;48.84
40117;BME280;25829;50.228;18.936;2023-04-08T10:06:12;99045.13;;;12.08;50.50
40117;BME280;25829;50.228;18.936;2023-04-08T10:09:12;99048.19;;;12.05;49.96
40117;BME280;25829;50.228;18.936;2023-04-08T10:12:14;99055.00;;;11.66;50.06
40117;BME280;25829;50.228;18.936;2023-04-08T10:15:27;99062.63;;;11.27;47.26
40117;BME280;25829;50.228;18.936;2023-04-08T10:18:31;99058.16;;;10.87;49.45
40117;BME280;25829;50.228;18.936;2023-04-08T10:21:37;99052.31;;;10.63;50.13
40117;BME280;25829;50.228;18.936;2023-04-08T10:24:40;99056.91;;;10.26;48.27
40117;BME280;25829;50.228;18.936;2023-04-08T10:31:21;99052.53;;;9.69;49.97
40117;BME280;25829;50.228;18.936;2023-04-08T10:34:23;99050.88;;;9.47;51.04
40117;BME280;25829;50.228;18.936;2023-04-08T10:37:26;99055.81;;;9.35;51.14
40117;BME280;25829;50.228;18.936;2023-04-08T10:40:27;99063.69;;;9.20;50.75
40117;BME280;25829;50.228;18.936;2023-04-08T10:43:35;99060.00;;;9.14;52.08
40117;BME280;25829;50.228;18.936;2023-04-08T10:46:36;99056.59;;;9.21;52.33
40117;BME280;25829;50.228;18.936;2023-04-08T10:49:37;99053.44;;;9.25;51.69
40117;BME280;25829;50.228;18.936;2023-04-08T10:52:51;99062.16;;;9.26;51.11
40117;BME280;25829;50.228;18.936;2023-04-08T10:55:52;99059.50;;;9.26;51.99
40117;BME280;25829;50.228;18.936;2023-04-08T10:59:02;99060.59;;;9.16;49.56
40117;BME280;25829;50.228;18.936;2023-04-08T11:02:03;99062.91;;;9.05;51.93
40117;BME280;25829;50.228;18.936;2023-04-08T11:05:08;99058.72;;;9.10;51.36
40117;BME280;25829;50.228;18.936;2023-04-08T11:08:09;99061.28;;;9.04;50.42
40117;BME280;25829;50.228;18.936;2023-04-08T11:11:10;99050.72;;;8.89;50.14
40117;BME280;25829;50.228;18.936;2023-04-08T11:14:13;99060.19;;;8.83;50.24
40117;BME280;25829;50.228;18.936;2023-04-08T11:17:14;99061.91;;;8.76;50.87
40117;BME280;25829;50.228;18.936;2023-04-08T11:20:16;99051.84;;;8.80;51.23
40117;BME280;25829;50.228;18.936;2023-04-08T11:23:17;99074.16;;;8.84;50.40
40117;BME280;25829;50.228;18.936;2023-04-08T11:26:18;99062.38;;;8.80;50.18
40117;BME280;25829;50.228;18.936;2023-04-08T11:29:19;99066.38;;;8.76;50.42
40117;BME280;25829;50.228;18.936;2023-04-08T11:32:21;99059.19;;;8.69;50.51
40117;BME280;25829;50.228;18.936;2023-04-08T11:35:22;99061.88;;;8.61;50.19
40117;BME280;25829;50.228;18.936;2023-04-08T11:38:23;99076.03;;;8.60;50.80
40117;BME280;25829;50.228;18.936;2023-04-08T11:41:34;99069.59;;;8.63;51.35
40117;BME280;25829;50.228;18.936;2023-04-08T11:44:35;99076.25;;;8.74;51.73
40117;BME280;25829;50.228;18.936;2023-04-08T11:47:36;99070.63;;;8.77;50.65
40117;BME280;25829;50.228;18.936;2023-04-08T11:50:39;99075.34;;;8.81;51.23
40117;BME280;25829;50.228;18.936;2023-04-08T11:53:41;99071.97;;;8.73;50.26
40117;BME280;25829;50.228;18.936;2023-04-08T11:56:47;99068.50;;;8.72;51.76
40117;BME280;25829;50.228;18.936;2023-04-08T11:59:48;99071.88;;;8.81;51.03
40117;BME280;25829;50.228;18.936;2023-04-08T12:02:50;99064.34;;;8.78;50.00
40117;BME280;25829;50.228;18.936;2023-04-08T12:05:51;99068.81;;;8.62;51.19
40117;BME280;25829;50.228;18.936;2023-04-08T12:08:53;99077.84;;;8.60;50.71
40117;BME280;25829;50.228;18.936;2023-04-08T12:11:56;99077.38;;;8.41;49.49
40117;BME280;25829;50.228;18.936;2023-04-08T12:14:57;99080.16;;;8.25;50.78
40117;BME280;25829;50.228;18.936;2023-04-08T12:18:07;99069.97;;;8.22;51.06
40117;BME280;25829;50.228;18.936;2023-04-08T12:21:08;99068.16;;;8.23;51.44
40117;BME280;25829;50.228;18.936;2023-04-08T12:24:08;99062.75;;;8.24;51.99
40117;BME280;25829;50.228;18.936;2023-04-08T12:27:09;99080.41;;;8.30;52.07
40117;BME280;25829;50.228;18.936;2023-04-08T12:30:13;99075.44;;;8.20;52.18
40117;BME280;25829;50.228;18.936;2023-04-08T12:33:14;99074.78;;;8.18;52.43
40117;BME280;25829;50.228;18.936;2023-04-08T12:36:15;99075.47;;;8.12;53.23
40117;BME280;25829;50.228;18.936;2023-04-08T12:39:16;99075.81;;;8.09;53.28
40117;BME280;25829;50.228;18.936;2023-04-08T12:42:17;99080.25;;;8.09;53.57
40117;BME280;25829;50.228;18.936;2023-04-08T12:45:18;99071.88;;;8.13;53.80
40117;BME280;25829;50.228;18.936;2023-04-08T12:48:18;99075.31;;;8.14;54.18
40117;BME280;25829;50.228;18.936;2023-04-08T12:51:19;99076.09;;;8.00;54.03
40117;BME280;25829;50.228;18.936;2023-04-08T12:54:20;99071.69;;;7.92;54.51
40117;BME280;25829;50.228;18.936;2023-04-08T12:57:21;99067.25;;;7.92;55.06
40117;BME280;25829;50.228;18.936;2023-04-08T13:00:22;99081.03;;;7.94;55.25
40117;BME280;25829;50.228;18.936;2023-04-08T13:03:22;99080.09;;;7.87;55.61
40117;BME280;25829;50.228;18.936;2023-04-08T13:06:23;99081.63;;;7.73;56.18
40117;BME280;25829;50.228;18.936;2023-04-08T13:09:32;99094.16;;;7.63;56.40
40117;BME280;25829;50.228;18.936;2023-04-08T13:12:33;99084.19;;;7.59;56.93
40117;BME280;25829;50.228;18.936;2023-04-08T13:15:34;99092.53;;;7.62;56.69
40117;BME280;25829;50.228;18.936;2023-04-08T13:18:35;99089.56;;;7.65;57.14
40117;BME280;25829;50.228;18.936;2023-04-08T13:21:40;99087.75;;;7.66;57.13
40117;BME280;25829;50.228;18.936;2023-04-08T13:24:43;99091.72;;;7.62;57.22
40117;BME280;25829;50.228;18.936;2023-04-08T13:27:44;99083.72;;;7.55;57.47
40117;BME280;25829;50.228;18.936;2023-04-08T13:30:45;99099.38;;;7.40;57.85
40117;BME280;25829;50.228;18.936;2023-04-08T13:33:45;99100.41;;;7.31;58.25
40117;BME280;25829;50.228;18.936;2023-04-08T13:36:49;99097.59;;;7.33;58.52
40117;BME280;25829;50.228;18.936;2023-04-08T13:39:50;99094.97;;;7.33;58.75
40117;BME280;25829;50.228;18.936;2023-04-08T13:42:53;99092.34;;;7.41;58.80
40117;BME280;25829;50.228;18.936;2023-04-08T13:45:54;99092.34;;;7.41;58.37
40117;BME280;25829;50.228;18.936;2023-04-08T13:48:54;99089.84;;;7.39;58.51
40117;BME280;25829;50.228;18.936;2023-04-08T13:51:55;99083.78;;;7.39;58.72
40117;BME280;25829;50.228;18.936;2023-04-08T13:54:56;99087.25;;;7.39;58.34
40117;BME280;25829;50.228;18.936;2023-04-08T13:58:00;99088.25;;;7.38;58.62
40117;BME280;25829;50.228;18.936;2023-04-08T14:01:03;99081.84;;;7.33;59.10
40117;BME280;25829;50.228;18.936;2023-04-08T14:04:05;99079.28;;;7.24;59.63
40117;BME280;25829;50.228;18.936;2023-04-08T14:07:12;99088.97;;;7.24;59.68
40117;BME280;25829;50.228;18.936;2023-04-08T14:10:16;99080.59;;;7.20;59.23
40117;BME280;25829;50.228;18.936;2023-04-08T14:13:17;99091.41;;;7.25;59.70
40117;BME280;25829;50.228;18.936;2023-04-08T14:16:20;99086.66;;;7.21;59.52
40117;BME280;25829;50.228;18.936;2023-04-08T14:19:24;99092.06;;;7.27;60.27
40117;BME280;25829;50.228;18.936;2023-04-08T14:22:25;99097.16;;;7.21;60.27
40117;BME280;25829;50.228;18.936;2023-04-08T14:25:26;99088.47;;;7.20;59.90
40117;BME280;25829;50.228;18.936;2023-04-08T14:28:26;99089.63;;;7.18;60.04
40117;BME280;25829;50.228;18.936;2023-04-08T14:31:27;99089.19;;;7.06;60.62
40117;BME280;25829;50.228;18.936;2023-04-08T14:34:28;99088.53;;;7.04;60.53
40117;BME280;25829;50.228;18.936;2023-04-08T14:37:29;99090.34;;;7.03;60.22
40117;BME280;25829;50.228;18.936;2023-04-08T14:40:33;99088.34;;;7.14;61.22
40117;BME280;25829;50.228;18.936;2023-04-08T14:43:34;99089.50;;;7.11;60.72
40117;BME280;25829;50.228;18.936;2023-04-08T14:46:34;99092.13;;;7.11;60.81
40117;BME280;25829;50.228;18.936;2023-04-08T14:49:35;99083.09;;;7.06;61.41
40117;BME280;25829;50.228;18.936;2023-04-08T14:52:39;99086.25;;;7.01;61.05
40117;BME280;25829;50.228;18.936;2023-04-08T14:55:40;99084.78;;;6.98;61.60
40117;BME280;25829;50.228;18.936;2023-04-08T14:58:44;99083.13;;;6.97;61.63
40117;BME280;25829;50.228;18.936;2023-04-08T15:01:45;99093.50;;;6.91;61.90
40117;BME280;25829;50.228;18.936;2023-04-08T15:04:46;99091.03;;;6.89;61.76
40117;BME280;25829;50.228;18.936;2023-04-08T15:07:47;99089.38;;;6.96;61.84
40117;BME280;25829;50.228;18.936;2023-04-08T15:10:48;99085.72;;;7.06;61.95
40117;BME280;25829;50.228;18.936;2023-04-08T15:13:48;99096.69;;;7.09;61.31
40117;BME280;25829;50.228;18.936;2023-04-08T15:16:49;99093.25;;;7.09;61.62
40117;BME280;25829;50.228;18.936;2023-04-08T15:19:50;99101.63;;;7.12;61.38
40117;BME280;25829;50.228;18.936;2023-04-08T15:22:54;99096.50;;;7.19;61.72
40117;BME280;25829;50.228;18.936;2023-04-08T15:25:55;99097.50;;;7.18;61.37
40117;BME280;25829;50.228;18.936;2023-04-08T15:28:57;99104.22;;;7.20;62.04
40117;BME280;25829;50.228;18.936;2023-04-08T15:31:58;99096.97;;;7.22;61.46
40117;BME280;25829;50.228;18.936;2023-04-08T15:34:59;99097.97;;;7.21;61.59
40117;BME280;25829;50.228;18.936;2023-04-08T15:38:00;99106.53;;;7.15;61.43
40117;BME280;25829;50.228;18.936;2023-04-08T15:41:01;99109.00;;;7.17;61.74
40117;BME280;25829;50.228;18.936;2023-04-08T15:44:05;99103.56;;;7.18;62.16
40117;BME280;25829;50.228;18.936;2023-04-08T15:47:06;99107.81;;;7.19;62.37
40117;BME280;25829;50.228;18.936;2023-04-08T15:50:10;99096.03;;;7.15;62.25
40117;BME280;25829;50.228;18.936;2023-04-08T15:53:18;99100.66;;;7.13;62.23
40117;BME280;25829;50.228;18.936;2023-04-08T15:56:20;99100.31;;;7.08;62.35
40117;BME280;25829;50.228;18.936;2023-04-08T15:59:20;99102.13;;;7.08;62.53
40117;BME280;25829;50.228;18.936;2023-04-08T16:02:21;99099.69;;;6.98;62.67
40117;BME280;25829;50.228;18.936;2023-04-08T16:05:22;99104.78;;;6.91;63.00
40117;BME280;25829;50.228;18.936;2023-04-08T16:08:23;99107.09;;;6.94;62.98
40117;BME280;25829;50.228;18.936;2023-04-08T16:11:24;99112.66;;;6.99;63.10
40117;BME280;25829;50.228;18.936;2023-04-08T16:14:25;99112.31;;;7.02;62.83
40117;BME280;25829;50.228;18.936;2023-04-08T16:17:27;99108.03;;;7.10;63.12